Terminal Aerodrome Forecast
Issued by NWS

Home | Current Version | Previous Version | Graphics & Text | Print | Product List | Glossary Off
Versions: 1 2 3 4 5 6 7 8 9 10 11 12 13 14 15 16 17

560
FTUS43 KBIS 250056 AAA
TAFMOT
TAF AMD
KMOT 250056Z 2501/2524 29009KT P6SM OVC015
      TEMPO 2501/2505 SCT015 OVC025
     FM251100 29009KT P6SM -SN OVC008
     FM251800 31012G20KT P6SM OVC015=

USA.gov is the U.S. government's official web portal to all federal, state and local government web resources and services.